Terminal Aerodrome Forecast
Issued by NWS

Home | Current Version | Previous Version | Text Only | Print | Product List | Glossary On
Versions: 1 2 3 4 5 6 7 8 9 10 11 12 13 14 15 16 17 18 19 20
000
FTUS41 KALY 261120
TAFPSF
TAF
KPSF 261120Z 2612/2712 22006KT P6SM SCT100
     FM261500 21010G16KT P6SM SCT050 BKN100
     FM261800 22012G20KT P6SM VCSH BKN050
     FM270000 20008KT P6SM VCSH OVC050
     FM270600 18004KT 5SM BR VCSH BKN020 OVC040=

USA.gov is the U.S. government's official web portal to all federal, state and local government web resources and services.